createdAt,value
2017-10-26T00:01:40.663Z,10.40
2017-10-26T00:04:08.315Z,10.40
2017-10-26T00:06:36.031Z,10.30
2017-10-26T00:09:03.796Z,10.30
2017-10-26T00:11:31.498Z,10.30
2017-10-26T00:13:59.151Z,10.20
2017-10-26T00:16:27.609Z,10.30
2017-10-26T00:18:56.041Z,10.10
2017-10-26T00:21:23.752Z,10.10
2017-10-26T00:23:52.175Z,9.80
2017-10-26T00:26:19.903Z,9.80
2017-10-26T00:28:48.324Z,9.80
2017-10-26T00:31:17.015Z,9.80
2017-10-26T00:33:44.703Z,9.90
2017-10-26T00:36:12.418Z,10.10
2017-10-26T00:38:40.110Z,10.00
2017-10-26T00:41:07.807Z,9.80
2017-10-26T00:43:35.468Z,9.60
2017-10-26T00:46:03.176Z,9.60
2017-10-26T00:48:30.844Z,9.50
2017-10-26T00:50:58.574Z,9.60
2017-10-26T00:53:26.271Z,9.70
2017-10-26T00:55:54.108Z,9.90
2017-10-26T00:58:21.799Z,9.70
2017-10-26T01:00:49.552Z,9.50
2017-10-26T01:03:17.216Z,9.50
2017-10-26T01:05:44.957Z,9.50
2017-10-26T01:08:12.616Z,9.60
2017-10-26T01:10:40.340Z,9.60
2017-10-26T01:13:08.019Z,9.60
2017-10-26T01:15:35.723Z,9.70
2017-10-26T01:18:03.470Z,9.70
2017-10-26T01:20:31.183Z,9.70
2017-10-26T01:22:58.915Z,9.50
2017-10-26T01:25:27.391Z,9.20
2017-10-26T01:27:55.903Z,9.10
2017-10-26T01:30:23.615Z,9.10
2017-10-26T01:32:51.375Z,9.20
2017-10-26T01:35:19.089Z,9.40
2017-10-26T01:37:46.850Z,9.40
2017-10-26T01:40:14.558Z,9.20
2017-10-26T01:42:42.317Z,9.30
2017-10-26T01:45:10.023Z,9.20
2017-10-26T01:47:37.778Z,9.20
2017-10-26T01:50:05.502Z,9.30
2017-10-26T01:52:33.221Z,9.40
2017-10-26T01:55:00.936Z,9.40
2017-10-26T01:57:28.754Z,9.40
2017-10-26T01:59:56.471Z,9.40
2017-10-26T02:02:24.988Z,9.10
2017-10-26T02:04:52.710Z,9.10
2017-10-26T02:07:21.354Z,8.90
2017-10-26T02:09:49.051Z,8.90
2017-10-26T02:12:17.584Z,8.80
2017-10-26T02:14:45.294Z,8.80
2017-10-26T02:17:13.832Z,9.10
2017-10-26T02:19:41.560Z,9.10
2017-10-26T02:22:09.315Z,9.20
2017-10-26T02:24:37.047Z,9.30
2017-10-26T02:27:05.519Z,9.00
2017-10-26T02:29:44.954Z,8.90
2017-10-26T02:32:12.690Z,8.80
2017-10-26T02:34:40.396Z,9.00
2017-10-26T02:37:08.900Z,9.10
2017-10-26T02:39:36.575Z,9.10
2017-10-26T02:42:04.284Z,9.10
2017-10-26T02:44:32.743Z,9.00
2017-10-26T02:47:00.471Z,8.90
2017-10-26T02:49:28.135Z,9.00
2017-10-26T02:51:55.841Z,8.90
2017-10-26T02:54:24.332Z,9.00
2017-10-26T02:56:52.063Z,9.00
2017-10-26T02:59:19.763Z,8.90
2017-10-26T03:01:47.479Z,8.90
2017-10-26T03:04:15.243Z,8.80
2017-10-26T03:06:42.952Z,8.80
2017-10-26T03:09:10.680Z,8.80
2017-10-26T03:11:39.171Z,8.60
2017-10-26T03:14:07.675Z,8.70
2017-10-26T03:16:35.350Z,8.70
2017-10-26T03:19:03.051Z,8.80
2017-10-26T03:21:30.741Z,8.80
2017-10-26T03:23:59.212Z,8.80
2017-10-26T03:26:27.641Z,8.80
2017-10-26T03:28:55.355Z,8.80
2017-10-26T03:31:23.024Z,8.90
2017-10-26T03:33:50.744Z,9.00
2017-10-26T03:36:18.399Z,8.90
2017-10-26T03:38:46.108Z,9.00
2017-10-26T03:41:13.768Z,9.00
2017-10-26T03:43:41.487Z,8.90
2017-10-26T03:46:09.148Z,8.90
2017-10-26T03:48:36.859Z,8.90
2017-10-26T03:51:04.532Z,9.00
2017-10-26T03:53:32.231Z,8.90
2017-10-26T03:55:59.924Z,9.00
2017-10-26T03:58:27.631Z,8.90
2017-10-26T04:00:55.295Z,8.80
2017-10-26T04:03:22.998Z,8.70
2017-10-26T04:05:50.660Z,8.80
2017-10-26T04:08:18.363Z,8.90
2017-10-26T04:10:46.035Z,8.80
2017-10-26T04:13:13.759Z,8.80
2017-10-26T04:15:41.422Z,8.80
2017-10-26T04:18:09.131Z,9.10
2017-10-26T04:20:36.796Z,9.00
2017-10-26T04:23:05.318Z,8.90
2017-10-26T04:25:33.071Z,8.90
2017-10-26T04:28:00.811Z,8.80
2017-10-26T04:30:29.360Z,8.80
2017-10-26T04:32:57.112Z,8.70
2017-10-26T04:35:24.875Z,8.80
2017-10-26T04:37:52.575Z,8.80
2017-10-26T04:40:21.075Z,8.90
2017-10-26T04:42:48.771Z,8.90
2017-10-26T04:45:16.507Z,9.00
2017-10-26T04:47:44.167Z,8.90
2017-10-26T04:50:11.875Z,8.90
2017-10-26T04:52:39.539Z,8.80
2017-10-26T04:55:08.016Z,8.70
2017-10-26T04:57:36.448Z,8.70
2017-10-26T05:00:04.168Z,8.70
2017-10-26T05:02:32.612Z,8.70
2017-10-26T05:05:00.318Z,8.70
2017-10-26T05:07:28.001Z,8.80
2017-10-26T05:09:55.709Z,8.90
2017-10-26T05:12:24.159Z,8.90
2017-10-26T05:14:51.858Z,8.90
2017-10-26T05:17:20.292Z,8.90
2017-10-26T05:19:48.001Z,8.90
2017-10-26T05:22:16.444Z,8.80
2017-10-26T05:24:44.144Z,8.80
2017-10-26T05:27:11.812Z,8.80
2017-10-26T05:29:39.510Z,8.90
2017-10-26T05:32:07.184Z,9.10
2017-10-26T05:34:35.812Z,9.20
2017-10-26T05:37:03.499Z,9.30
2017-10-26T05:39:31.266Z,9.20
2017-10-26T05:41:58.963Z,9.10
2017-10-26T05:44:26.688Z,9.10
2017-10-26T05:46:54.378Z,9.00
2017-10-26T05:49:22.883Z,9.20
2017-10-26T05:51:51.339Z,9.30
2017-10-26T05:54:19.068Z,9.30
2017-10-26T05:56:46.773Z,9.30
2017-10-26T05:59:15.267Z,9.10
2017-10-26T06:01:43.077Z,9.10
2017-10-26T06:04:10.787Z,9.10
2017-10-26T06:06:38.460Z,9.10
2017-10-26T06:09:06.194Z,9.10
2017-10-26T06:11:34.628Z,9.20
2017-10-26T06:14:02.351Z,9.20
2017-10-26T06:16:30.008Z,9.30
2017-10-26T06:18:57.716Z,9.40
2017-10-26T06:21:25.371Z,9.30
2017-10-26T06:23:53.068Z,9.40
2017-10-26T06:26:21.524Z,9.40
2017-10-26T06:28:49.226Z,9.40
2017-10-26T06:31:16.880Z,9.40
2017-10-26T06:33:44.580Z,9.50
2017-10-26T06:36:12.255Z,9.40
2017-10-26T06:38:39.972Z,9.40
2017-10-26T06:41:07.631Z,9.40
2017-10-26T06:43:35.284Z,9.50
2017-10-26T06:46:03.021Z,9.50
2017-10-26T06:48:31.481Z,9.50
2017-10-26T06:50:59.218Z,9.50
2017-10-26T06:53:26.915Z,9.50
2017-10-26T06:55:54.619Z,9.50
2017-10-26T06:58:22.288Z,9.50
2017-10-26T07:00:50.003Z,9.60
2017-10-26T07:03:18.432Z,9.80
2017-10-26T07:05:46.128Z,9.80
2017-10-26T07:08:13.783Z,9.80
2017-10-26T07:10:41.502Z,9.80
2017-10-26T07:13:09.168Z,9.80
2017-10-26T07:15:36.890Z,10.00
2017-10-26T07:18:05.332Z,10.00
2017-10-26T07:20:33.035Z,9.90
2017-10-26T07:23:01.099Z,10.00
2017-10-26T07:25:28.812Z,10.10
2017-10-26T07:27:56.480Z,10.20
2017-10-26T07:30:24.216Z,10.20
2017-10-26T07:32:51.896Z,10.10
2017-10-26T07:35:19.615Z,10.10
2017-10-26T07:37:47.312Z,10.20
2017-10-26T07:40:15.171Z,10.30
2017-10-26T07:42:42.876Z,10.40
2017-10-26T07:45:11.425Z,10.40
2017-10-26T07:47:39.100Z,10.40
2017-10-26T07:50:06.824Z,10.40
2017-10-26T07:52:34.574Z,10.50
2017-10-26T07:55:02.320Z,10.60
2017-10-26T07:57:30.020Z,10.60
2017-10-26T07:59:57.754Z,10.60
2017-10-26T08:02:25.451Z,10.70
2017-10-26T08:04:53.183Z,10.70
2017-10-26T08:07:20.867Z,11.00
2017-10-26T08:09:48.600Z,11.10
2017-10-26T08:12:16.381Z,11.00
2017-10-26T08:14:44.128Z,11.00
2017-10-26T08:17:11.823Z,11.20
2017-10-26T08:19:39.504Z,11.30
2017-10-26T08:22:08.038Z,11.50
2017-10-26T08:24:35.720Z,11.50
2017-10-26T08:27:03.421Z,11.70
2017-10-26T08:29:31.098Z,11.80
2017-10-26T08:31:58.817Z,11.80
2017-10-26T08:34:27.260Z,11.80
2017-10-26T08:36:54.995Z,11.80
2017-10-26T08:39:22.712Z,11.80
2017-10-26T08:41:51.192Z,12.20
2017-10-26T08:44:19.652Z,12.20
2017-10-26T08:46:47.379Z,12.20
2017-10-26T08:49:15.055Z,12.30
2017-10-26T08:51:42.840Z,12.30
2017-10-26T08:54:10.575Z,12.40
2017-10-26T08:56:38.300Z,12.50
2017-10-26T08:59:06.051Z,12.40
2017-10-26T09:01:33.820Z,12.50
2017-10-26T09:04:01.508Z,12.60
2017-10-26T09:06:29.300Z,12.50
2017-10-26T09:08:57.066Z,12.60
2017-10-26T09:11:24.847Z,12.60
2017-10-26T09:13:53.388Z,12.70
2017-10-26T09:16:21.211Z,12.70
2017-10-26T09:18:48.931Z,12.70
2017-10-26T09:21:16.725Z,12.70
2017-10-26T09:23:44.458Z,12.80
2017-10-26T09:26:12.247Z,13.00
2017-10-26T09:28:40.735Z,13.10
2017-10-26T09:31:08.501Z,13.10
2017-10-26T09:33:38.008Z,13.20
2017-10-26T09:36:05.848Z,13.20
2017-10-26T09:38:34.353Z,13.20
2017-10-26T09:41:02.098Z,13.20
2017-10-26T09:43:29.868Z,13.30
2017-10-26T09:45:57.604Z,13.30
2017-10-26T09:48:26.155Z,13.30
2017-10-26T09:50:53.876Z,13.30
2017-10-26T09:53:21.662Z,13.30
2017-10-26T09:55:49.395Z,13.40
2017-10-26T09:58:17.164Z,13.30
2017-10-26T10:00:44.896Z,13.40
2017-10-26T10:03:13.451Z,13.60
2017-10-26T10:05:41.191Z,13.60
2017-10-26T10:08:08.952Z,13.80
2017-10-26T10:10:36.682Z,13.80
2017-10-26T10:13:04.434Z,13.90
2017-10-26T10:15:32.163Z,13.80
2017-10-26T10:17:59.940Z,13.90
2017-10-26T10:20:28.428Z,14.00
2017-10-26T10:22:56.979Z,13.90
2017-10-26T10:25:24.691Z,13.90
2017-10-26T10:27:52.467Z,13.90
2017-10-26T10:30:20.171Z,14.00
2017-10-26T10:32:47.993Z,14.10
2017-10-26T10:35:15.712Z,14.00
2017-10-26T10:37:44.257Z,14.20
2017-10-26T10:40:11.988Z,14.20
2017-10-26T10:42:39.739Z,14.30
2017-10-26T10:45:07.464Z,14.30
2017-10-26T10:47:35.991Z,14.40
2017-10-26T10:50:03.765Z,14.30
2017-10-26T10:52:31.470Z,14.20
2017-10-26T10:55:00.019Z,14.00
2017-10-26T10:57:27.755Z,14.00
2017-10-26T11:00:01.196Z,13.90
2017-10-26T11:02:29.687Z,14.20
2017-10-26T11:04:58.216Z,14.50
2017-10-26T11:07:25.968Z,14.50
2017-10-26T11:09:53.742Z,14.70
2017-10-26T11:12:21.483Z,14.70
2017-10-26T11:14:49.268Z,14.60
2017-10-26T11:17:16.996Z,14.80
2017-10-26T11:19:44.785Z,14.70
2017-10-26T11:22:12.546Z,14.70
2017-10-26T11:24:40.361Z,14.70
2017-10-26T11:27:08.643Z,14.70
2017-10-26T11:29:36.463Z,14.80
2017-10-26T11:32:04.188Z,15.00
2017-10-26T11:34:31.950Z,15.00
2017-10-26T11:36:59.675Z,15.10
2017-10-26T11:39:28.213Z,15.10
2017-10-26T11:41:55.938Z,15.10
2017-10-26T11:44:23.703Z,15.20
2017-10-26T11:46:51.414Z,15.20
2017-10-26T11:49:19.211Z,15.20
2017-10-26T11:51:48.348Z,15.20
2017-10-26T11:54:16.383Z,15.00
2017-10-26T11:56:44.116Z,15.10
2017-10-26T11:59:12.666Z,15.20
2017-10-26T12:01:40.402Z,15.20
2017-10-26T12:04:08.133Z,15.20
2017-10-26T12:06:36.671Z,15.30
2017-10-26T12:09:04.420Z,15.30
2017-10-26T12:11:32.204Z,15.30
2017-10-26T12:13:59.932Z,15.30
2017-10-26T12:16:27.715Z,15.30
2017-10-26T12:18:55.446Z,15.50
2017-10-26T12:21:23.228Z,15.50
2017-10-26T12:23:50.977Z,15.70
2017-10-26T12:26:18.771Z,15.80
2017-10-26T12:28:46.615Z,15.90
2017-10-26T12:31:14.396Z,16.00
2017-10-26T12:33:42.179Z,15.90
2017-10-26T12:36:10.707Z,16.00
2017-10-26T12:38:38.495Z,16.00
2017-10-26T12:41:06.307Z,15.90
2017-10-26T12:43:34.416Z,15.90
2017-10-26T12:46:02.178Z,16.00
2017-10-26T12:48:29.927Z,16.00
2017-10-26T12:50:57.708Z,15.90
2017-10-26T12:53:25.443Z,16.00
2017-10-26T12:55:53.211Z,15.90
2017-10-26T12:58:20.946Z,15.80
2017-10-26T13:00:48.724Z,15.70
2017-10-26T13:03:16.462Z,15.90
2017-10-26T13:05:44.988Z,15.90
2017-10-26T13:08:12.715Z,15.90
2017-10-26T13:10:40.492Z,15.80
2017-10-26T13:13:08.230Z,15.70
2017-10-26T13:15:36.008Z,15.70
2017-10-26T13:18:03.734Z,15.50
2017-10-26T13:20:32.284Z,15.20
2017-10-26T13:23:00.065Z,15.20
2017-10-26T13:25:27.852Z,15.30
2017-10-26T13:27:55.527Z,15.40
2017-10-26T13:30:23.197Z,15.50
2017-10-26T13:32:50.930Z,15.60
2017-10-26T13:35:19.460Z,15.50
2017-10-26T13:37:47.240Z,15.50
2017-10-26T13:40:14.924Z,15.50
2017-10-26T13:42:43.395Z,15.40
2017-10-26T13:45:11.878Z,15.30
2017-10-26T13:47:40.364Z,15.20
2017-10-26T13:50:08.820Z,15.10
2017-10-26T13:52:36.539Z,15.20
2017-10-26T13:55:04.215Z,15.10
2017-10-26T13:57:31.940Z,15.10
2017-10-26T13:59:59.634Z,15.10
2017-10-26T14:02:27.412Z,15.20
2017-10-26T14:04:55.094Z,15.30
2017-10-26T14:07:23.576Z,15.50
2017-10-26T14:09:52.190Z,15.60
2017-10-26T14:12:19.911Z,15.60
2017-10-26T14:14:48.335Z,15.40
2017-10-26T14:17:16.044Z,15.40
2017-10-26T14:19:43.709Z,15.40
2017-10-26T14:22:12.188Z,15.30
2017-10-26T14:24:40.623Z,15.30
2017-10-26T14:27:08.327Z,15.30
2017-10-26T14:29:36.758Z,15.40
2017-10-26T14:32:04.459Z,15.30
2017-10-26T14:34:32.187Z,15.40
2017-10-26T14:36:59.895Z,15.50
2017-10-26T14:39:28.360Z,15.60
2017-10-26T14:41:56.830Z,15.50
2017-10-26T14:44:24.980Z,15.50
2017-10-26T14:46:52.695Z,15.70
2017-10-26T14:49:20.367Z,15.70
2017-10-26T14:51:49.535Z,15.50
2017-10-26T14:54:17.966Z,15.40
2017-10-26T14:56:46.150Z,15.40
2017-10-26T14:59:13.902Z,15.40
2017-10-26T15:01:41.603Z,15.50
2017-10-26T15:04:10.324Z,15.50
2017-10-26T15:06:38.046Z,15.50
2017-10-26T15:09:06.496Z,15.60
2017-10-26T15:11:34.203Z,15.60
2017-10-26T15:14:01.872Z,15.40
2017-10-26T15:16:29.575Z,15.40
2017-10-26T15:18:57.252Z,15.30
2017-10-26T15:21:24.959Z,15.40
2017-10-26T15:23:52.632Z,15.40
2017-10-26T15:26:20.345Z,15.30
2017-10-26T15:28:48.882Z,15.20
2017-10-26T15:31:16.604Z,15.20
2017-10-26T15:33:44.291Z,15.10
2017-10-26T15:36:11.997Z,15.10
2017-10-26T15:38:40.542Z,15.00
2017-10-26T15:41:08.259Z,15.00
2017-10-26T15:43:35.915Z,15.10
2017-10-26T15:46:03.642Z,15.00
2017-10-26T15:48:31.432Z,14.90
2017-10-26T15:50:59.923Z,14.90
2017-10-26T15:53:27.583Z,14.90
2017-10-26T15:55:55.251Z,15.10
2017-10-26T15:58:22.982Z,15.10
2017-10-26T16:00:51.423Z,15.20
2017-10-26T16:03:19.131Z,15.20
2017-10-26T16:05:46.808Z,15.10
2017-10-26T16:08:14.519Z,15.00
2017-10-26T16:10:42.232Z,14.80
2017-10-26T16:13:09.965Z,14.80
2017-10-26T16:15:38.417Z,14.60
2017-10-26T16:18:06.239Z,14.60
2017-10-26T16:20:33.918Z,14.60
2017-10-26T16:23:01.632Z,14.50
2017-10-26T16:25:30.063Z,14.80
2017-10-26T16:27:57.775Z,14.80
2017-10-26T16:30:25.455Z,14.80
2017-10-26T16:32:53.171Z,14.60
2017-10-26T16:35:20.835Z,14.40
2017-10-26T16:37:49.324Z,14.00
2017-10-26T16:40:17.767Z,13.90
2017-10-26T16:42:45.522Z,13.90
2017-10-26T16:45:13.200Z,13.90
2017-10-26T16:47:40.912Z,13.90
2017-10-26T16:50:08.585Z,13.90
2017-10-26T16:52:36.331Z,14.00
2017-10-26T16:55:04.006Z,14.10
2017-10-26T16:57:31.712Z,14.00
2017-10-26T17:00:00.153Z,14.20
2017-10-26T17:02:27.859Z,14.20
2017-10-26T17:04:56.368Z,14.70
2017-10-26T17:07:24.080Z,14.60
2017-10-26T17:09:51.752Z,14.70
2017-10-26T17:12:20.224Z,14.60
2017-10-26T17:14:48.659Z,14.60
2017-10-26T17:17:16.372Z,14.60
2017-10-26T17:19:44.836Z,14.50
2017-10-26T17:22:12.539Z,14.50
2017-10-26T17:24:40.211Z,14.40
2017-10-26T17:27:07.922Z,14.50
2017-10-26T17:29:36.365Z,14.20
2017-10-26T17:32:04.071Z,14.20
2017-10-26T17:34:32.503Z,13.90
2017-10-26T17:37:00.218Z,13.90
2017-10-26T17:39:27.879Z,13.90
2017-10-26T17:41:55.582Z,13.80
2017-10-26T17:44:23.251Z,13.70
2017-10-26T17:46:50.971Z,13.70
2017-10-26T17:49:18.644Z,13.60
2017-10-26T17:51:46.343Z,13.60
2017-10-26T17:54:14.027Z,13.50
2017-10-26T17:56:42.522Z,13.40
2017-10-26T17:59:10.207Z,13.40
2017-10-26T18:01:37.915Z,13.30
2017-10-26T18:04:06.399Z,13.20
2017-10-26T18:06:34.905Z,13.30
2017-10-26T18:09:02.579Z,13.30
2017-10-26T18:11:30.296Z,13.30
2017-10-26T18:13:58.737Z,13.20
2017-10-26T18:16:26.403Z,13.20
2017-10-26T18:18:54.111Z,13.30
2017-10-26T18:21:21.831Z,13.40
2017-10-26T18:23:49.621Z,13.40
2017-10-26T18:26:18.066Z,13.40
2017-10-26T18:28:45.781Z,13.40
2017-10-26T18:31:13.478Z,13.40
2017-10-26T18:33:41.194Z,13.50
2017-10-26T18:36:08.860Z,13.60
2017-10-26T18:38:36.579Z,13.90
2017-10-26T18:41:04.254Z,14.00
2017-10-26T18:43:31.980Z,14.00
2017-10-26T18:45:59.652Z,14.10
2017-10-26T18:48:27.367Z,13.90
2017-10-26T18:50:55.048Z,13.80
2017-10-26T18:53:22.756Z,13.80
2017-10-26T18:55:51.228Z,13.90
2017-10-26T18:58:19.047Z,13.90
2017-10-26T19:00:46.736Z,13.80
2017-10-26T19:03:14.460Z,13.70
2017-10-26T19:05:42.134Z,13.70
2017-10-26T19:08:09.856Z,13.70
2017-10-26T19:10:37.535Z,13.70
2017-10-26T19:13:05.250Z,13.60
2017-10-26T19:15:32.925Z,13.50
2017-10-26T19:18:01.411Z,13.40
2017-10-26T19:20:29.112Z,13.40
2017-10-26T19:22:56.829Z,13.50
2017-10-26T19:25:24.504Z,13.60
2017-10-26T19:27:52.214Z,13.60
2017-10-26T19:30:19.928Z,13.50
2017-10-26T19:32:47.638Z,13.50
2017-10-26T19:35:15.311Z,13.40
2017-10-26T19:37:43.797Z,13.30
2017-10-26T19:40:12.233Z,13.30
2017-10-26T19:42:39.995Z,13.30
2017-10-26T19:45:07.662Z,13.60
2017-10-26T19:47:36.143Z,13.80
2017-10-26T19:50:03.827Z,13.80
2017-10-26T19:52:32.304Z,13.80
2017-10-26T19:55:00.759Z,14.00
2017-10-26T19:57:28.495Z,14.00
2017-10-26T19:59:56.165Z,13.90
2017-10-26T20:02:23.875Z,13.90
2017-10-26T20:04:52.324Z,13.90
2017-10-26T20:07:20.036Z,13.80
2017-10-26T20:09:47.743Z,13.70
2017-10-26T20:12:15.473Z,13.70
2017-10-26T20:14:43.168Z,13.60
2017-10-26T20:17:10.879Z,13.70
2017-10-26T20:19:38.551Z,13.80
2017-10-26T20:22:06.264Z,13.70
2017-10-26T20:24:34.727Z,13.80
2017-10-26T20:27:02.447Z,13.80
2017-10-26T20:29:30.111Z,13.90
2017-10-26T20:31:57.788Z,14.00
2017-10-26T20:34:25.492Z,13.90
2017-10-26T20:36:53.925Z,13.80
2017-10-26T20:39:21.654Z,13.90
2017-10-26T20:41:49.333Z,13.90
2017-10-26T20:44:17.044Z,13.80
2017-10-26T20:46:45.477Z,13.80
2017-10-26T20:49:18.932Z,13.80
2017-10-26T20:51:52.208Z,13.70
2017-10-26T20:54:26.411Z,13.70
2017-10-26T20:56:59.657Z,13.60
2017-10-26T20:59:33.213Z,13.80
2017-10-26T21:02:06.580Z,13.90
2017-10-26T21:04:40.038Z,14.00
2017-10-26T21:07:13.444Z,13.90
2017-10-26T21:09:41.195Z,13.70
2017-10-26T21:12:14.520Z,13.60
2017-10-26T21:14:42.229Z,13.80
2017-10-26T21:17:09.897Z,13.80
2017-10-26T21:19:37.618Z,13.70
2017-10-26T21:22:05.284Z,13.80
2017-10-26T21:24:33.752Z,13.70
2017-10-26T21:27:01.411Z,13.70
2017-10-26T21:29:29.116Z,13.80
2017-10-26T21:31:56.784Z,13.80
2017-10-26T21:34:24.500Z,13.90
2017-10-26T21:36:52.932Z,13.60
2017-10-26T21:39:20.640Z,13.60
2017-10-26T21:41:49.069Z,13.70
2017-10-26T21:44:16.884Z,13.70
2017-10-26T21:46:45.319Z,13.60
2017-10-26T21:49:13.789Z,13.50
2017-10-26T21:51:41.463Z,13.50
2017-10-26T21:54:09.175Z,13.40
2017-10-26T21:56:36.859Z,13.30
2017-10-26T21:59:04.588Z,13.30
2017-10-26T22:01:32.274Z,13.30
2017-10-26T22:03:59.979Z,13.30
2017-10-26T22:06:27.648Z,13.50
2017-10-26T22:08:56.131Z,13.60
2017-10-26T22:11:24.562Z,13.80
2017-10-26T22:13:53.069Z,13.70
2017-10-26T22:16:20.743Z,13.90
2017-10-26T22:18:49.220Z,13.60
2017-10-26T22:21:17.651Z,13.70
2017-10-26T22:23:45.355Z,13.70
2017-10-26T22:26:13.027Z,13.80
2017-10-26T22:28:41.503Z,13.70
2017-10-26T22:31:09.932Z,13.70
2017-10-26T22:33:37.636Z,13.70
2017-10-26T22:36:06.075Z,13.80
2017-10-26T22:38:33.752Z,13.80
2017-10-26T22:41:01.458Z,13.60
2017-10-26T22:43:29.132Z,13.60
2017-10-26T22:45:56.876Z,13.50
2017-10-26T22:48:24.539Z,13.70
2017-10-26T22:50:52.256Z,13.70
2017-10-26T22:53:19.917Z,13.60
2017-10-26T22:55:47.635Z,13.60
2017-10-26T22:58:15.298Z,13.70
2017-10-26T23:00:43.026Z,13.60
2017-10-26T23:03:11.454Z,13.60
2017-10-26T23:05:39.171Z,13.60
2017-10-26T23:08:06.836Z,13.70
2017-10-26T23:10:34.535Z,13.70
2017-10-26T23:13:02.195Z,13.60
2017-10-26T23:15:29.922Z,13.50
2017-10-26T23:17:57.587Z,13.50
2017-10-26T23:20:25.304Z,13.40
2017-10-26T23:22:52.968Z,13.50
2017-10-26T23:25:21.443Z,13.40
2017-10-26T23:27:49.881Z,13.30
2017-10-26T23:30:17.590Z,13.30
2017-10-26T23:32:46.026Z,13.40
2017-10-26T23:35:13.748Z,13.40
2017-10-26T23:37:41.415Z,13.40
2017-10-26T23:40:09.143Z,13.40
2017-10-26T23:42:37.567Z,13.50
2017-10-26T23:45:05.274Z,13.50
2017-10-26T23:47:32.939Z,13.50
2017-10-26T23:50:01.425Z,13.40
2017-10-26T23:52:29.851Z,13.30
2017-10-26T23:54:57.575Z,13.30
2017-10-26T23:57:25.244Z,13.40
2017-10-26T23:59:52.915Z,13.40
